Amagansett, New York
Current Conditions -  °F | °C
As of 9:56 PM on Friday 19 Dec 2014 (Local Time) from KGON Reporting Station
Overcast Overcast  
Wind Chill: 24°   Ceiling: 3200
Heat Index: 31°   Visibility: 8mi
Dew Point: 22°   Wind: 7mph
Humidity: 69%   Direction: 310°NW
Pressure: 30.12"   Gusts: NA
Location:  40.97°N, 72.14°W
Report Text: KGON 200256Z 31006KT 8SM OVC032 M01/M06 A3012 RMK AO2 SLP199 T10061056 50009
Loading
Personal Weather Stations






























Interactive Weather Map New forecast layout! Learn more

10-Day Weather Forecast

Advertisements
Track Severe Weather on mobile